sensor_id;sensor_type;location;lat;lon;timestamp;temperature;humidity
22706;DHT22;11520;51.198;4.468;2022-10-19T00:00:45;11.10;99.90
22706;DHT22;11520;51.198;4.468;2022-10-19T00:03:10;11.10;99.90
22706;DHT22;11520;51.198;4.468;2022-10-19T00:05:37;11.20;99.90
22706;DHT22;11520;51.198;4.468;2022-10-19T00:08:06;11.20;99.90
22706;DHT22;11520;51.198;4.468;2022-10-19T00:10:31;11.30;99.90
22706;DHT22;11520;51.198;4.468;2022-10-19T00:12:57;11.40;99.90
22706;DHT22;11520;51.198;4.468;2022-10-19T00:15:24;11.50;99.90
22706;DHT22;11520;51.198;4.468;2022-10-19T00:17:49;11.60;99.90
22706;DHT22;11520;51.198;4.468;2022-10-19T00:20:16;11.40;99.90
22706;DHT22;11520;51.198;4.468;2022-10-19T00:22:42;11.40;99.90
22706;DHT22;11520;51.198;4.468;2022-10-19T00:25:08;11.30;99.90
22706;DHT22;11520;51.198;4.468;2022-10-19T00:27:33;11.10;99.90
22706;DHT22;11520;51.198;4.468;2022-10-19T00:30:00;11.00;99.90
22706;DHT22;11520;51.198;4.468;2022-10-19T00:32:26;11.00;99.90
22706;DHT22;11520;51.198;4.468;2022-10-19T00:34:56;10.90;99.90
22706;DHT22;11520;51.198;4.468;2022-10-19T00:37:22;10.90;99.90
22706;DHT22;11520;51.198;4.468;2022-10-19T00:39:49;10.80;99.90
22706;DHT22;11520;51.198;4.468;2022-10-19T00:42:15;10.70;99.90
22706;DHT22;11520;51.198;4.468;2022-10-19T00:47:15;10.80;99.90
22706;DHT22;11520;51.198;4.468;2022-10-19T00:49:44;10.80;99.90
22706;DHT22;11520;51.198;4.468;2022-10-19T00:52:14;10.70;99.90
22706;DHT22;11520;51.198;4.468;2022-10-19T00:54:42;10.70;99.90
22706;DHT22;11520;51.198;4.468;2022-10-19T00:57:10;10.80;99.90
22706;DHT22;11520;51.198;4.468;2022-10-19T00:59:36;10.80;99.90
22706;DHT22;11520;51.198;4.468;2022-10-19T01:02:04;10.70;99.90
22706;DHT22;11520;51.198;4.468;2022-10-19T01:04:34;10.70;99.90
22706;DHT22;11520;51.198;4.468;2022-10-19T01:07:03;10.60;99.90
22706;DHT22;11520;51.198;4.468;2022-10-19T01:09:29;10.60;99.90
22706;DHT22;11520;51.198;4.468;2022-10-19T01:12:28;10.60;99.90
22706;DHT22;11520;51.198;4.468;2022-10-19T01:15:13;10.70;99.90
22706;DHT22;11520;51.198;4.468;2022-10-19T01:23:38;10.60;99.90
22706;DHT22;11520;51.198;4.468;2022-10-19T01:31:57;10.60;99.90
22706;DHT22;11520;51.198;4.468;2022-10-19T01:34:31;10.60;99.90
22706;DHT22;11520;51.198;4.468;2022-10-19T01:37:16;10.60;99.90
22706;DHT22;11520;51.198;4.468;2022-10-19T01:47:58;10.70;99.90
22706;DHT22;11520;51.198;4.468;2022-10-19T01:50:27;10.80;99.90
22706;DHT22;11520;51.198;4.468;2022-10-19T01:52:55;10.90;99.90
22706;DHT22;11520;51.198;4.468;2022-10-19T01:55:27;10.90;99.90
22706;DHT22;11520;51.198;4.468;2022-10-19T01:58:01;11.10;99.90
22706;DHT22;11520;51.198;4.468;2022-10-19T02:00:30;11.10;99.90
22706;DHT22;11520;51.198;4.468;2022-10-19T02:02:58;11.10;99.90
22706;DHT22;11520;51.198;4.468;2022-10-19T02:05:31;11.10;99.90
22706;DHT22;11520;51.198;4.468;2022-10-19T02:08:00;11.10;99.90
22706;DHT22;11520;51.198;4.468;2022-10-19T02:10:31;11.10;99.90
22706;DHT22;11520;51.198;4.468;2022-10-19T02:13:01;11.10;99.90
22706;DHT22;11520;51.198;4.468;2022-10-19T02:15:28;11.10;99.90
22706;DHT22;11520;51.198;4.468;2022-10-19T02:17:56;11.10;99.90
22706;DHT22;11520;51.198;4.468;2022-10-19T02:20:25;11.10;99.90
22706;DHT22;11520;51.198;4.468;2022-10-19T02:22:51;11.00;99.90
22706;DHT22;11520;51.198;4.468;2022-10-19T02:25:17;11.10;99.90
22706;DHT22;11520;51.198;4.468;2022-10-19T02:27:43;11.00;99.90
22706;DHT22;11520;51.198;4.468;2022-10-19T02:30:14;10.80;99.90
22706;DHT22;11520;51.198;4.468;2022-10-19T02:32:42;10.70;99.90
22706;DHT22;11520;51.198;4.468;2022-10-19T02:35:09;10.50;99.90
22706;DHT22;11520;51.198;4.468;2022-10-19T02:37:36;10.40;99.90
22706;DHT22;11520;51.198;4.468;2022-10-19T02:40:05;10.50;99.90
22706;DHT22;11520;51.198;4.468;2022-10-19T02:42:34;10.40;99.90
22706;DHT22;11520;51.198;4.468;2022-10-19T02:45:08;10.50;99.90
22706;DHT22;11520;51.198;4.468;2022-10-19T02:47:43;10.30;99.90
22706;DHT22;11520;51.198;4.468;2022-10-19T02:50:12;10.20;99.90
22706;DHT22;11520;51.198;4.468;2022-10-19T02:52:39;10.20;99.90
22706;DHT22;11520;51.198;4.468;2022-10-19T02:55:06;10.20;99.90
22706;DHT22;11520;51.198;4.468;2022-10-19T02:57:33;10.20;99.90
22706;DHT22;11520;51.198;4.468;2022-10-19T03:00:03;10.20;99.90
22706;DHT22;11520;51.198;4.468;2022-10-19T03:02:29;10.10;99.90
22706;DHT22;11520;51.198;4.468;2022-10-19T03:04:55;10.10;99.90
22706;DHT22;11520;51.198;4.468;2022-10-19T03:07:20;10.00;99.90
22706;DHT22;11520;51.198;4.468;2022-10-19T03:09:48;10.00;99.90
22706;DHT22;11520;51.198;4.468;2022-10-19T03:12:14;9.90;99.90
22706;DHT22;11520;51.198;4.468;2022-10-19T03:14:40;10.00;99.90
22706;DHT22;11520;51.198;4.468;2022-10-19T03:17:06;9.90;99.90
22706;DHT22;11520;51.198;4.468;2022-10-19T03:19:33;9.90;99.90
22706;DHT22;11520;51.198;4.468;2022-10-19T03:21:59;9.90;99.90
22706;DHT22;11520;51.198;4.468;2022-10-19T03:24:26;9.90;99.90
22706;DHT22;11520;51.198;4.468;2022-10-19T03:26:52;9.90;99.90
22706;DHT22;11520;51.198;4.468;2022-10-19T03:29:21;9.90;99.90
22706;DHT22;11520;51.198;4.468;2022-10-19T03:31:47;9.80;99.90
22706;DHT22;11520;51.198;4.468;2022-10-19T03:34:13;9.80;99.90
22706;DHT22;11520;51.198;4.468;2022-10-19T03:36:40;9.80;99.90
22706;DHT22;11520;51.198;4.468;2022-10-19T03:39:10;9.90;99.90
22706;DHT22;11520;51.198;4.468;2022-10-19T03:41:37;9.80;99.90
22706;DHT22;11520;51.198;4.468;2022-10-19T03:44:12;9.80;99.90
22706;DHT22;11520;51.198;4.468;2022-10-19T03:46:38;9.80;99.90
22706;DHT22;11520;51.198;4.468;2022-10-19T03:49:05;9.80;99.90
22706;DHT22;11520;51.198;4.468;2022-10-19T03:51:32;9.80;99.90
22706;DHT22;11520;51.198;4.468;2022-10-19T03:54:00;9.80;99.90
22706;DHT22;11520;51.198;4.468;2022-10-19T03:56:28;9.80;99.90
22706;DHT22;11520;51.198;4.468;2022-10-19T03:58:55;9.80;99.90
22706;DHT22;11520;51.198;4.468;2022-10-19T04:01:24;9.80;99.90
22706;DHT22;11520;51.198;4.468;2022-10-19T04:04:01;9.80;99.90
22706;DHT22;11520;51.198;4.468;2022-10-19T04:06:33;9.70;99.90
22706;DHT22;11520;51.198;4.468;2022-10-19T04:08:59;9.70;99.90
22706;DHT22;11520;51.198;4.468;2022-10-19T04:11:28;9.70;99.90
22706;DHT22;11520;51.198;4.468;2022-10-19T04:13:56;9.60;99.90
22706;DHT22;11520;51.198;4.468;2022-10-19T04:16:24;9.60;99.90
22706;DHT22;11520;51.198;4.468;2022-10-19T04:18:53;9.60;99.90
22706;DHT22;11520;51.198;4.468;2022-10-19T04:23:53;9.60;99.90
22706;DHT22;11520;51.198;4.468;2022-10-19T04:26:21;9.60;99.90
22706;DHT22;11520;51.198;4.468;2022-10-19T04:28:47;9.60;99.90
22706;DHT22;11520;51.198;4.468;2022-10-19T04:31:12;9.60;99.90
22706;DHT22;11520;51.198;4.468;2022-10-19T04:33:39;9.50;99.90
22706;DHT22;11520;51.198;4.468;2022-10-19T04:36:08;9.50;99.90
22706;DHT22;11520;51.198;4.468;2022-10-19T04:38:35;9.60;99.90
22706;DHT22;11520;51.198;4.468;2022-10-19T04:41:03;9.60;99.90
22706;DHT22;11520;51.198;4.468;2022-10-19T04:43:31;9.60;99.90
22706;DHT22;11520;51.198;4.468;2022-10-19T04:46:05;9.60;99.90
22706;DHT22;11520;51.198;4.468;2022-10-19T04:48:32;9.70;99.90
22706;DHT22;11520;51.198;4.468;2022-10-19T04:50:58;9.70;99.90
22706;DHT22;11520;51.198;4.468;2022-10-19T04:53:23;9.70;99.90
22706;DHT22;11520;51.198;4.468;2022-10-19T04:55:49;9.60;99.90
22706;DHT22;11520;51.198;4.468;2022-10-19T04:58:15;9.60;99.90
22706;DHT22;11520;51.198;4.468;2022-10-19T05:00:41;9.50;99.90
22706;DHT22;11520;51.198;4.468;2022-10-19T05:03:08;9.40;99.90
22706;DHT22;11520;51.198;4.468;2022-10-19T05:05:38;9.40;99.90
22706;DHT22;11520;51.198;4.468;2022-10-19T05:08:04;9.40;99.90
22706;DHT22;11520;51.198;4.468;2022-10-19T05:10:30;9.40;99.90
22706;DHT22;11520;51.198;4.468;2022-10-19T05:12:56;9.40;99.90
22706;DHT22;11520;51.198;4.468;2022-10-19T05:15:21;9.40;99.90
22706;DHT22;11520;51.198;4.468;2022-10-19T05:17:47;9.30;99.90
22706;DHT22;11520;51.198;4.468;2022-10-19T05:20:13;9.30;99.90
22706;DHT22;11520;51.198;4.468;2022-10-19T05:22:38;9.30;99.90
22706;DHT22;11520;51.198;4.468;2022-10-19T05:25:05;9.30;99.90
22706;DHT22;11520;51.198;4.468;2022-10-19T05:27:31;9.40;99.90
22706;DHT22;11520;51.198;4.468;2022-10-19T05:29:57;9.40;99.90
22706;DHT22;11520;51.198;4.468;2022-10-19T05:32:24;9.40;99.90
22706;DHT22;11520;51.198;4.468;2022-10-19T05:34:52;9.50;99.90
22706;DHT22;11520;51.198;4.468;2022-10-19T05:37:17;9.30;99.90
22706;DHT22;11520;51.198;4.468;2022-10-19T05:39:43;9.30;99.90
22706;DHT22;11520;51.198;4.468;2022-10-19T05:42:09;9.30;99.90
22706;DHT22;11520;51.198;4.468;2022-10-19T05:44:36;9.30;99.90
22706;DHT22;11520;51.198;4.468;2022-10-19T05:47:02;9.30;99.90
22706;DHT22;11520;51.198;4.468;2022-10-19T05:49:27;9.30;99.90
22706;DHT22;11520;51.198;4.468;2022-10-19T05:51:53;9.20;99.90
22706;DHT22;11520;51.198;4.468;2022-10-19T05:54:20;9.20;99.90
22706;DHT22;11520;51.198;4.468;2022-10-19T05:56:46;9.20;99.90
22706;DHT22;11520;51.198;4.468;2022-10-19T05:59:17;9.10;99.90
22706;DHT22;11520;51.198;4.468;2022-10-19T06:01:44;9.10;99.90
22706;DHT22;11520;51.198;4.468;2022-10-19T06:04:10;9.00;99.90
22706;DHT22;11520;51.198;4.468;2022-10-19T06:06:40;9.10;99.90
22706;DHT22;11520;51.198;4.468;2022-10-19T06:09:07;9.20;99.90
22706;DHT22;11520;51.198;4.468;2022-10-19T06:11:36;9.00;99.90
22706;DHT22;11520;51.198;4.468;2022-10-19T06:14:06;9.00;99.90
22706;DHT22;11520;51.198;4.468;2022-10-19T06:16:32;9.00;99.90
22706;DHT22;11520;51.198;4.468;2022-10-19T06:18:58;9.10;99.90
22706;DHT22;11520;51.198;4.468;2022-10-19T06:21:27;9.10;99.90
22706;DHT22;11520;51.198;4.468;2022-10-19T06:23:58;9.10;99.90
22706;DHT22;11520;51.198;4.468;2022-10-19T06:26:25;9.20;99.90
22706;DHT22;11520;51.198;4.468;2022-10-19T06:28:56;9.20;99.90
22706;DHT22;11520;51.198;4.468;2022-10-19T06:31:25;9.20;99.90
22706;DHT22;11520;51.198;4.468;2022-10-19T06:33:51;9.30;99.90
22706;DHT22;11520;51.198;4.468;2022-10-19T06:36:22;9.30;99.90
22706;DHT22;11520;51.198;4.468;2022-10-19T06:38:49;9.30;99.90
22706;DHT22;11520;51.198;4.468;2022-10-19T06:41:15;9.30;99.90
22706;DHT22;11520;51.198;4.468;2022-10-19T06:43:41;9.40;99.90
22706;DHT22;11520;51.198;4.468;2022-10-19T06:46:13;9.40;99.90
22706;DHT22;11520;51.198;4.468;2022-10-19T06:48:43;9.40;99.90
22706;DHT22;11520;51.198;4.468;2022-10-19T06:51:09;9.60;99.90
22706;DHT22;11520;51.198;4.468;2022-10-19T06:53:36;9.50;99.90
22706;DHT22;11520;51.198;4.468;2022-10-19T06:56:04;9.50;99.90
22706;DHT22;11520;51.198;4.468;2022-10-19T06:58:34;9.50;99.90
22706;DHT22;11520;51.198;4.468;2022-10-19T07:01:00;9.60;99.90
22706;DHT22;11520;51.198;4.468;2022-10-19T07:03:27;9.60;99.90
22706;DHT22;11520;51.198;4.468;2022-10-19T07:05:59;9.70;99.90
22706;DHT22;11520;51.198;4.468;2022-10-19T07:08:27;9.80;99.90
22706;DHT22;11520;51.198;4.468;2022-10-19T07:10:56;9.70;99.90
22706;DHT22;11520;51.198;4.468;2022-10-19T07:13:22;9.80;99.90
22706;DHT22;11520;51.198;4.468;2022-10-19T07:15:48;9.80;99.90
22706;DHT22;11520;51.198;4.468;2022-10-19T07:18:15;9.80;99.90
22706;DHT22;11520;51.198;4.468;2022-10-19T07:20:41;9.90;99.90
22706;DHT22;11520;51.198;4.468;2022-10-19T07:23:07;9.90;99.90
22706;DHT22;11520;51.198;4.468;2022-10-19T07:25:32;10.00;99.90
22706;DHT22;11520;51.198;4.468;2022-10-19T07:27:59;10.00;99.90
22706;DHT22;11520;51.198;4.468;2022-10-19T07:30:26;10.00;99.90
22706;DHT22;11520;51.198;4.468;2022-10-19T07:32:57;10.10;99.90
22706;DHT22;11520;51.198;4.468;2022-10-19T07:35:33;10.20;99.90
22706;DHT22;11520;51.198;4.468;2022-10-19T07:38:01;10.30;99.90
22706;DHT22;11520;51.198;4.468;2022-10-19T07:40:32;10.60;99.90
22706;DHT22;11520;51.198;4.468;2022-10-19T07:42:58;11.00;99.90
22706;DHT22;11520;51.198;4.468;2022-10-19T07:45:24;11.30;99.90
22706;DHT22;11520;51.198;4.468;2022-10-19T07:47:50;11.70;99.90
22706;DHT22;11520;51.198;4.468;2022-10-19T07:50:16;12.10;99.90
22706;DHT22;11520;51.198;4.468;2022-10-19T07:52:42;12.40;99.90
22706;DHT22;11520;51.198;4.468;2022-10-19T07:55:08;12.80;99.90
22706;DHT22;11520;51.198;4.468;2022-10-19T07:57:36;13.00;99.90
22706;DHT22;11520;51.198;4.468;2022-10-19T08:00:02;13.40;99.90
22706;DHT22;11520;51.198;4.468;2022-10-19T08:02:27;13.90;99.90
22706;DHT22;11520;51.198;4.468;2022-10-19T08:04:55;15.00;99.90
22706;DHT22;11520;51.198;4.468;2022-10-19T08:45:29;17.10;99.90
22706;DHT22;11520;51.198;4.468;2022-10-19T08:48:22;16.90;99.90
22706;DHT22;11520;51.198;4.468;2022-10-19T08:50:53;16.90;99.90
22706;DHT22;11520;51.198;4.468;2022-10-19T08:53:39;17.00;99.90
22706;DHT22;11520;51.198;4.468;2022-10-19T08:56:28;16.60;99.90
22706;DHT22;11520;51.198;4.468;2022-10-19T09:01:44;16.70;99.90
22706;DHT22;11520;51.198;4.468;2022-10-19T09:09:24;16.80;99.90
22706;DHT22;11520;51.198;4.468;2022-10-19T09:11:55;16.50;99.90
22706;DHT22;11520;51.198;4.468;2022-10-19T09:14:44;16.20;99.90
22706;DHT22;11520;51.198;4.468;2022-10-19T09:17:13;16.80;99.90
22706;DHT22;11520;51.198;4.468;2022-10-19T09:19:41;17.20;99.90
22706;DHT22;11520;51.198;4.468;2022-10-19T09:22:15;18.30;99.90
22706;DHT22;11520;51.198;4.468;2022-10-19T09:24:53;18.80;99.90
22706;DHT22;11520;51.198;4.468;2022-10-19T09:27:26;18.40;99.90
22706;DHT22;11520;51.198;4.468;2022-10-19T09:29:56;18.60;99.90
22706;DHT22;11520;51.198;4.468;2022-10-19T09:32:36;19.10;99.90
22706;DHT22;11520;51.198;4.468;2022-10-19T09:37:39;19.50;99.90
22706;DHT22;11520;51.198;4.468;2022-10-19T09:40:16;19.50;99.90
22706;DHT22;11520;51.198;4.468;2022-10-19T09:42:42;18.90;99.90
22706;DHT22;11520;51.198;4.468;2022-10-19T09:45:16;19.00;99.90
22706;DHT22;11520;51.198;4.468;2022-10-19T09:47:47;19.50;99.90
22706;DHT22;11520;51.198;4.468;2022-10-19T09:50:26;19.70;99.90
22706;DHT22;11520;51.198;4.468;2022-10-19T09:52:59;19.70;99.90
22706;DHT22;11520;51.198;4.468;2022-10-19T09:58:03;18.40;99.90
22706;DHT22;11520;51.198;4.468;2022-10-19T10:00:42;18.10;99.90
22706;DHT22;11520;51.198;4.468;2022-10-19T10:05:55;19.10;99.90
22706;DHT22;11520;51.198;4.468;2022-10-19T10:08:24;18.80;99.90
22706;DHT22;11520;51.198;4.468;2022-10-19T10:13:22;19.70;99.90
22706;DHT22;11520;51.198;4.468;2022-10-19T10:15:53;19.10;99.90
22706;DHT22;11520;51.198;4.468;2022-10-19T10:18:22;18.70;99.90
22706;DHT22;11520;51.198;4.468;2022-10-19T10:21:23;18.30;99.90
22706;DHT22;11520;51.198;4.468;2022-10-19T10:24:18;18.20;99.90
22706;DHT22;11520;51.198;4.468;2022-10-19T10:26:58;19.80;99.90
22706;DHT22;11520;51.198;4.468;2022-10-19T10:29:27;19.80;99.90
22706;DHT22;11520;51.198;4.468;2022-10-19T10:31:55;19.50;99.90
22706;DHT22;11520;51.198;4.468;2022-10-19T10:34:37;20.00;99.90
22706;DHT22;11520;51.198;4.468;2022-10-19T10:37:07;19.90;99.90
22706;DHT22;11520;51.198;4.468;2022-10-19T10:39:40;19.80;99.90
22706;DHT22;11520;51.198;4.468;2022-10-19T10:42:10;20.20;99.90
22706;DHT22;11520;51.198;4.468;2022-10-19T10:44:48;19.80;99.90
22706;DHT22;11520;51.198;4.468;2022-10-19T10:47:17;20.30;99.90
22706;DHT22;11520;51.198;4.468;2022-10-19T10:50:02;21.50;99.90
22706;DHT22;11520;51.198;4.468;2022-10-19T10:52:30;20.40;99.90
22706;DHT22;11520;51.198;4.468;2022-10-19T10:57:31;19.90;99.90
22706;DHT22;11520;51.198;4.468;2022-10-19T11:00:20;19.30;99.90
22706;DHT22;11520;51.198;4.468;2022-10-19T11:03:00;18.70;99.90
22706;DHT22;11520;51.198;4.468;2022-10-19T11:05:33;18.50;99.90
22706;DHT22;11520;51.198;4.468;2022-10-19T11:08:21;19.10;99.90
22706;DHT22;11520;51.198;4.468;2022-10-19T11:10:49;19.30;99.90
22706;DHT22;11520;51.198;4.468;2022-10-19T11:16:08;19.90;99.90
22706;DHT22;11520;51.198;4.468;2022-10-19T11:18:59;19.90;99.90
22706;DHT22;11520;51.198;4.468;2022-10-19T11:21:49;19.20;99.90
22706;DHT22;11520;51.198;4.468;2022-10-19T11:27:34;19.60;99.90
22706;DHT22;11520;51.198;4.468;2022-10-19T11:41:03;18.20;99.90
22706;DHT22;11520;51.198;4.468;2022-10-19T11:44:20;18.20;99.90
22706;DHT22;11520;51.198;4.468;2022-10-19T11:52:25;18.40;99.90
22706;DHT22;11520;51.198;4.468;2022-10-19T11:58:04;18.80;99.90
22706;DHT22;11520;51.198;4.468;2022-10-19T12:00:51;18.30;99.90
22706;DHT22;11520;51.198;4.468;2022-10-19T12:14:29;17.90;99.90
22706;DHT22;11520;51.198;4.468;2022-10-19T12:17:01;17.60;99.90
22706;DHT22;11520;51.198;4.468;2022-10-19T12:19:39;17.90;99.90
22706;DHT22;11520;51.198;4.468;2022-10-19T12:22:14;17.90;99.90
22706;DHT22;11520;51.198;4.468;2022-10-19T12:24:40;17.70;99.90
22706;DHT22;11520;51.198;4.468;2022-10-19T12:27:11;17.70;99.90
22706;DHT22;11520;51.198;4.468;2022-10-19T12:29:40;17.80;99.90
22706;DHT22;11520;51.198;4.468;2022-10-19T12:32:12;17.80;99.90
22706;DHT22;11520;51.198;4.468;2022-10-19T12:35:03;17.60;99.90
22706;DHT22;11520;51.198;4.468;2022-10-19T12:37:56;17.60;99.90
22706;DHT22;11520;51.198;4.468;2022-10-19T12:40:42;17.60;99.90
22706;DHT22;11520;51.198;4.468;2022-10-19T12:43:22;17.50;99.90
22706;DHT22;11520;51.198;4.468;2022-10-19T12:48:33;17.40;99.90
22706;DHT22;11520;51.198;4.468;2022-10-19T12:51:05;17.50;99.90
22706;DHT22;11520;51.198;4.468;2022-10-19T12:53:35;17.80;99.90
22706;DHT22;11520;51.198;4.468;2022-10-19T13:01:02;17.20;99.90
22706;DHT22;11520;51.198;4.468;2022-10-19T13:03:35;17.20;99.90
22706;DHT22;11520;51.198;4.468;2022-10-19T13:06:10;17.20;99.90
22706;DHT22;11520;51.198;4.468;2022-10-19T13:08:43;17.30;99.90
22706;DHT22;11520;51.198;4.468;2022-10-19T13:11:12;17.50;99.90
22706;DHT22;11520;51.198;4.468;2022-10-19T13:14:00;17.70;99.90
22706;DHT22;11520;51.198;4.468;2022-10-19T13:21:51;17.60;99.90
22706;DHT22;11520;51.198;4.468;2022-10-19T13:29:40;17.10;99.90
22706;DHT22;11520;51.198;4.468;2022-10-19T13:34:55;17.00;99.90
22706;DHT22;11520;51.198;4.468;2022-10-19T13:37:38;17.00;99.90
22706;DHT22;11520;51.198;4.468;2022-10-19T13:40:16;17.20;99.90
22706;DHT22;11520;51.198;4.468;2022-10-19T13:42:43;17.30;99.90
22706;DHT22;11520;51.198;4.468;2022-10-19T13:45:21;17.30;99.90
22706;DHT22;11520;51.198;4.468;2022-10-19T13:47:50;17.30;99.90
22706;DHT22;11520;51.198;4.468;2022-10-19T13:53:02;17.10;99.90
22706;DHT22;11520;51.198;4.468;2022-10-19T13:56:00;17.10;99.90
22706;DHT22;11520;51.198;4.468;2022-10-19T14:01:42;17.00;99.90
22706;DHT22;11520;51.198;4.468;2022-10-19T14:04:38;16.80;99.90
22706;DHT22;11520;51.198;4.468;2022-10-19T14:07:23;16.80;99.90
22706;DHT22;11520;51.198;4.468;2022-10-19T14:10:06;16.80;99.90
22706;DHT22;11520;51.198;4.468;2022-10-19T14:12:41;16.90;99.90
22706;DHT22;11520;51.198;4.468;2022-10-19T14:15:33;16.90;99.90
22706;DHT22;11520;51.198;4.468;2022-10-19T14:17:59;16.90;99.90
22706;DHT22;11520;51.198;4.468;2022-10-19T14:20:31;17.00;99.90
22706;DHT22;11520;51.198;4.468;2022-10-19T14:23:17;17.00;99.90
22706;DHT22;11520;51.198;4.468;2022-10-19T14:28:31;16.90;99.90
22706;DHT22;11520;51.198;4.468;2022-10-19T14:31:08;16.90;99.90
22706;DHT22;11520;51.198;4.468;2022-10-19T14:33:39;17.10;99.90
22706;DHT22;11520;51.198;4.468;2022-10-19T14:36:15;17.10;99.90
22706;DHT22;11520;51.198;4.468;2022-10-19T14:38:41;16.80;99.90
22706;DHT22;11520;51.198;4.468;2022-10-19T14:41:32;16.70;99.90
22706;DHT22;11520;51.198;4.468;2022-10-19T14:43:58;16.70;99.90
22706;DHT22;11520;51.198;4.468;2022-10-19T14:46:29;16.50;99.90
22706;DHT22;11520;51.198;4.468;2022-10-19T14:49:00;16.50;99.90
22706;DHT22;11520;51.198;4.468;2022-10-19T14:51:38;16.50;99.90
22706;DHT22;11520;51.198;4.468;2022-10-19T14:54:13;16.50;99.90
22706;DHT22;11520;51.198;4.468;2022-10-19T14:56:52;16.60;99.90
22706;DHT22;11520;51.198;4.468;2022-10-19T14:59:26;16.60;99.90
22706;DHT22;11520;51.198;4.468;2022-10-19T15:01:58;16.60;99.90
22706;DHT22;11520;51.198;4.468;2022-10-19T15:04:28;16.60;99.90
22706;DHT22;11520;51.198;4.468;2022-10-19T15:06:55;16.50;99.90
22706;DHT22;11520;51.198;4.468;2022-10-19T15:09:33;16.60;99.90
22706;DHT22;11520;51.198;4.468;2022-10-19T15:12:23;16.50;99.90
22706;DHT22;11520;51.198;4.468;2022-10-19T15:14:50;16.40;99.90
22706;DHT22;11520;51.198;4.468;2022-10-19T15:19:48;16.40;99.90
22706;DHT22;11520;51.198;4.468;2022-10-19T15:22:17;16.30;99.90
22706;DHT22;11520;51.198;4.468;2022-10-19T15:27:41;16.20;99.90
22706;DHT22;11520;51.198;4.468;2022-10-19T15:30:30;16.30;99.90
22706;DHT22;11520;51.198;4.468;2022-10-19T15:35:44;16.20;99.90
22706;DHT22;11520;51.198;4.468;2022-10-19T15:38:23;16.10;99.90
22706;DHT22;11520;51.198;4.468;2022-10-19T15:40:59;16.10;99.90
22706;DHT22;11520;51.198;4.468;2022-10-19T15:46:03;15.90;99.90
22706;DHT22;11520;51.198;4.468;2022-10-19T15:48:46;15.90;99.90
22706;DHT22;11520;51.198;4.468;2022-10-19T15:53:55;15.80;99.90
22706;DHT22;11520;51.198;4.468;2022-10-19T15:56:23;15.70;99.90
22706;DHT22;11520;51.198;4.468;2022-10-19T15:58:56;15.70;99.90
22706;DHT22;11520;51.198;4.468;2022-10-19T16:01:25;15.70;99.90
22706;DHT22;11520;51.198;4.468;2022-10-19T16:03:52;15.70;99.90
22706;DHT22;11520;51.198;4.468;2022-10-19T16:06:19;15.70;99.90
22706;DHT22;11520;51.198;4.468;2022-10-19T16:08:45;15.60;99.90
22706;DHT22;11520;51.198;4.468;2022-10-19T16:11:16;15.60;99.90
22706;DHT22;11520;51.198;4.468;2022-10-19T16:13:42;15.50;99.90
22706;DHT22;11520;51.198;4.468;2022-10-19T16:16:09;15.50;99.90
22706;DHT22;11520;51.198;4.468;2022-10-19T16:18:42;15.40;99.90
22706;DHT22;11520;51.198;4.468;2022-10-19T16:21:11;15.40;99.90
22706;DHT22;11520;51.198;4.468;2022-10-19T16:23:43;15.40;99.90
22706;DHT22;11520;51.198;4.468;2022-10-19T16:26:12;15.30;99.90
22706;DHT22;11520;51.198;4.468;2022-10-19T16:28:38;15.30;99.90
22706;DHT22;11520;51.198;4.468;2022-10-19T16:31:04;15.20;99.90
22706;DHT22;11520;51.198;4.468;2022-10-19T16:33:31;15.20;99.90
22706;DHT22;11520;51.198;4.468;2022-10-19T16:35:58;15.20;99.90
22706;DHT22;11520;51.198;4.468;2022-10-19T16:38:23;15.10;99.90
22706;DHT22;11520;51.198;4.468;2022-10-19T16:40:49;15.10;99.90
22706;DHT22;11520;51.198;4.468;2022-10-19T16:43:16;15.00;99.90
22706;DHT22;11520;51.198;4.468;2022-10-19T16:45:43;15.10;99.90
22706;DHT22;11520;51.198;4.468;2022-10-19T16:48:12;15.10;99.90
22706;DHT22;11520;51.198;4.468;2022-10-19T16:50:38;15.00;99.90
22706;DHT22;11520;51.198;4.468;2022-10-19T16:53:07;15.00;99.90
22706;DHT22;11520;51.198;4.468;2022-10-19T16:55:37;14.90;99.90
22706;DHT22;11520;51.198;4.468;2022-10-19T16:58:04;14.90;99.90
22706;DHT22;11520;51.198;4.468;2022-10-19T17:00:32;14.90;99.90
22706;DHT22;11520;51.198;4.468;2022-10-19T17:02:57;14.80;99.90
22706;DHT22;11520;51.198;4.468;2022-10-19T17:05:29;14.80;99.90
22706;DHT22;11520;51.198;4.468;2022-10-19T17:08:00;14.70;99.90
22706;DHT22;11520;51.198;4.468;2022-10-19T17:10:28;14.80;99.90
22706;DHT22;11520;51.198;4.468;2022-10-19T17:12:54;14.80;99.90
22706;DHT22;11520;51.198;4.468;2022-10-19T17:15:25;14.80;99.90
22706;DHT22;11520;51.198;4.468;2022-10-19T17:17:56;14.80;99.90
22706;DHT22;11520;51.198;4.468;2022-10-19T17:20:28;14.70;99.90
22706;DHT22;11520;51.198;4.468;2022-10-19T17:22:57;14.70;99.90
22706;DHT22;11520;51.198;4.468;2022-10-19T17:25:25;14.70;99.90
22706;DHT22;11520;51.198;4.468;2022-10-19T17:27:51;14.60;99.90
22706;DHT22;11520;51.198;4.468;2022-10-19T17:30:17;14.50;99.90
22706;DHT22;11520;51.198;4.468;2022-10-19T17:32:43;14.40;99.90
22706;DHT22;11520;51.198;4.468;2022-10-19T17:35:09;14.30;99.90
22706;DHT22;11520;51.198;4.468;2022-10-19T17:37:34;14.20;99.90
22706;DHT22;11520;51.198;4.468;2022-10-19T17:40:00;14.20;99.90
22706;DHT22;11520;51.198;4.468;2022-10-19T17:42:27;14.20;99.90
22706;DHT22;11520;51.198;4.468;2022-10-19T17:44:54;14.10;99.90
22706;DHT22;11520;51.198;4.468;2022-10-19T17:47:21;14.10;99.90
22706;DHT22;11520;51.198;4.468;2022-10-19T17:49:47;14.00;99.90
22706;DHT22;11520;51.198;4.468;2022-10-19T17:52:13;14.00;99.90
22706;DHT22;11520;51.198;4.468;2022-10-19T17:54:39;13.90;99.90
22706;DHT22;11520;51.198;4.468;2022-10-19T17:57:04;13.90;99.90
22706;DHT22;11520;51.198;4.468;2022-10-19T17:59:30;13.80;99.90
22706;DHT22;11520;51.198;4.468;2022-10-19T18:01:56;13.80;99.90
22706;DHT22;11520;51.198;4.468;2022-10-19T18:04:22;13.80;99.90
22706;DHT22;11520;51.198;4.468;2022-10-19T18:06:47;13.70;99.90
22706;DHT22;11520;51.198;4.468;2022-10-19T18:09:14;13.80;99.90
22706;DHT22;11520;51.198;4.468;2022-10-19T18:11:43;13.60;99.90
22706;DHT22;11520;51.198;4.468;2022-10-19T18:14:11;13.60;99.90
22706;DHT22;11520;51.198;4.468;2022-10-19T18:16:42;13.60;99.90
22706;DHT22;11520;51.198;4.468;2022-10-19T18:19:15;13.50;99.90
22706;DHT22;11520;51.198;4.468;2022-10-19T18:21:44;13.50;99.90
22706;DHT22;11520;51.198;4.468;2022-10-19T18:24:14;13.50;99.90
22706;DHT22;11520;51.198;4.468;2022-10-19T18:26:44;13.50;99.90
22706;DHT22;11520;51.198;4.468;2022-10-19T18:29:16;13.50;99.90
22706;DHT22;11520;51.198;4.468;2022-10-19T18:31:42;13.40;99.90
22706;DHT22;11520;51.198;4.468;2022-10-19T18:34:13;13.40;99.90
22706;DHT22;11520;51.198;4.468;2022-10-19T18:36:39;13.40;99.90
22706;DHT22;11520;51.198;4.468;2022-10-19T18:39:06;13.30;99.90